sensor_id;sensor_type;location;lat;lon;timestamp;P1;durP1;ratioP1;P2;durP2;ratioP2
37355;SDS011;48747;50.250;18.848;2022-09-09T00:00:49;10.53;;;9.38;;
37355;SDS011;48747;50.250;18.848;2022-09-09T00:02:59;12.55;;;9.08;;
37355;SDS011;48747;50.250;18.848;2022-09-09T00:14:20;11.28;;;10.08;;
37355;SDS011;48747;50.250;18.848;2022-09-09T00:16:27;10.63;;;9.40;;
37355;SDS011;48747;50.250;18.848;2022-09-09T00:18:45;14.20;;;10.13;;
37355;SDS011;48747;50.250;18.848;2022-09-09T00:22:46;15.20;;;10.93;;
37355;SDS011;48747;50.250;18.848;2022-09-09T00:25:01;13.98;;;10.30;;
37355;SDS011;48747;50.250;18.848;2022-09-09T00:27:01;15.93;;;10.82;;
37355;SDS011;48747;50.250;18.848;2022-09-09T00:31:26;14.38;;;11.73;;
37355;SDS011;48747;50.250;18.848;2022-09-09T00:33:31;14.68;;;10.85;;
37355;SDS011;48747;50.250;18.848;2022-09-09T00:35:40;16.32;;;12.07;;
37355;SDS011;48747;50.250;18.848;2022-09-09T00:37:44;14.50;;;11.85;;
37355;SDS011;48747;50.250;18.848;2022-09-09T00:39:50;15.53;;;12.05;;
37355;SDS011;48747;50.250;18.848;2022-09-09T00:51:48;21.82;;;15.53;;
37355;SDS011;48747;50.250;18.848;2022-09-09T00:54:07;19.55;;;14.78;;
37355;SDS011;48747;50.250;18.848;2022-09-09T00:56:13;21.33;;;15.43;;
37355;SDS011;48747;50.250;18.848;2022-09-09T00:58:19;18.40;;;15.25;;
37355;SDS011;48747;50.250;18.848;2022-09-09T01:01:26;20.45;;;15.90;;
37355;SDS011;48747;50.250;18.848;2022-09-09T01:02:44;20.17;;;15.13;;
37355;SDS011;48747;50.250;18.848;2022-09-09T01:04:45;21.00;;;16.05;;
37355;SDS011;48747;50.250;18.848;2022-09-09T01:06:50;23.70;;;16.52;;
37355;SDS011;48747;50.250;18.848;2022-09-09T01:09:04;22.85;;;16.52;;
37355;SDS011;48747;50.250;18.848;2022-09-09T01:11:28;24.77;;;16.60;;
37355;SDS011;48747;50.250;18.848;2022-09-09T01:13:30;21.05;;;16.35;;
37355;SDS011;48747;50.250;18.848;2022-09-09T01:15:35;21.70;;;15.68;;
37355;SDS011;48747;50.250;18.848;2022-09-09T01:22:05;19.25;;;15.43;;
37355;SDS011;48747;50.250;18.848;2022-09-09T01:24:13;21.55;;;14.83;;
37355;SDS011;48747;50.250;18.848;2022-09-09T01:26:35;20.43;;;15.78;;
37355;SDS011;48747;50.250;18.848;2022-09-09T01:28:47;19.85;;;15.30;;
37355;SDS011;48747;50.250;18.848;2022-09-09T01:30:52;19.45;;;15.43;;
37355;SDS011;48747;50.250;18.848;2022-09-09T01:32:57;20.37;;;15.72;;
37355;SDS011;48747;50.250;18.848;2022-09-09T01:35:02;21.02;;;15.25;;
37355;SDS011;48747;50.250;18.848;2022-09-09T01:37:09;17.77;;;14.87;;
37355;SDS011;48747;50.250;18.848;2022-09-09T01:39:14;17.65;;;14.13;;
37355;SDS011;48747;50.250;18.848;2022-09-09T01:41:19;19.55;;;14.80;;
37355;SDS011;48747;50.250;18.848;2022-09-09T01:43:27;18.60;;;15.08;;
37355;SDS011;48747;50.250;18.848;2022-09-09T01:45:29;19.85;;;15.20;;
37355;SDS011;48747;50.250;18.848;2022-09-09T01:47:33;21.12;;;15.88;;
37355;SDS011;48747;50.250;18.848;2022-09-09T01:49:37;19.17;;;15.10;;
37355;SDS011;48747;50.250;18.848;2022-09-09T01:51:40;19.92;;;14.95;;
37355;SDS011;48747;50.250;18.848;2022-09-09T01:53:48;19.52;;;15.83;;
37355;SDS011;48747;50.250;18.848;2022-09-09T01:56:02;18.45;;;15.10;;
37355;SDS011;48747;50.250;18.848;2022-09-09T01:58:09;18.67;;;15.68;;
37355;SDS011;48747;50.250;18.848;2022-09-09T02:00:19;19.70;;;13.72;;
37355;SDS011;48747;50.250;18.848;2022-09-09T02:02:26;17.23;;;14.87;;
37355;SDS011;48747;50.250;18.848;2022-09-09T02:04:41;17.35;;;14.75;;
37355;SDS011;48747;50.250;18.848;2022-09-09T02:06:57;18.48;;;14.43;;
37355;SDS011;48747;50.250;18.848;2022-09-09T02:09:02;17.70;;;13.68;;
37355;SDS011;48747;50.250;18.848;2022-09-09T02:13:19;16.97;;;14.38;;
37355;SDS011;48747;50.250;18.848;2022-09-09T02:15:26;17.50;;;14.65;;
37355;SDS011;48747;50.250;18.848;2022-09-09T02:17:38;20.92;;;15.03;;
37355;SDS011;48747;50.250;18.848;2022-09-09T02:19:46;16.87;;;14.75;;
37355;SDS011;48747;50.250;18.848;2022-09-09T02:21:52;16.70;;;14.05;;
37355;SDS011;48747;50.250;18.848;2022-09-09T02:23:59;17.23;;;12.63;;
37355;SDS011;48747;50.250;18.848;2022-09-09T02:26:05;20.43;;;14.03;;
37355;SDS011;48747;50.250;18.848;2022-09-09T02:28:12;16.85;;;14.60;;
37355;SDS011;48747;50.250;18.848;2022-09-09T02:30:19;20.90;;;15.25;;
37355;SDS011;48747;50.250;18.848;2022-09-09T02:32:23;15.53;;;13.78;;
37355;SDS011;48747;50.250;18.848;2022-09-09T02:34:27;17.32;;;13.80;;
37355;SDS011;48747;50.250;18.848;2022-09-09T02:36:32;19.32;;;15.48;;
37355;SDS011;48747;50.250;18.848;2022-09-09T02:38:39;14.78;;;12.80;;
37355;SDS011;48747;50.250;18.848;2022-09-09T02:40:44;20.20;;;13.68;;
37355;SDS011;48747;50.250;18.848;2022-09-09T02:42:47;18.17;;;14.45;;
37355;SDS011;48747;50.250;18.848;2022-09-09T02:44:51;21.05;;;14.73;;
37355;SDS011;48747;50.250;18.848;2022-09-09T02:52:06;18.73;;;14.50;;
37355;SDS011;48747;50.250;18.848;2022-09-09T02:56:31;16.87;;;13.62;;
37355;SDS011;48747;50.250;18.848;2022-09-09T02:58:37;17.37;;;14.03;;
37355;SDS011;48747;50.250;18.848;2022-09-09T03:00:41;17.60;;;13.25;;
37355;SDS011;48747;50.250;18.848;2022-09-09T03:02:45;18.17;;;12.93;;
37355;SDS011;48747;50.250;18.848;2022-09-09T03:04:48;15.70;;;13.05;;
37355;SDS011;48747;50.250;18.848;2022-09-09T03:06:52;15.78;;;14.18;;
37355;SDS011;48747;50.250;18.848;2022-09-09T03:09:00;16.93;;;13.40;;
37355;SDS011;48747;50.250;18.848;2022-09-09T03:11:02;17.12;;;13.78;;
37355;SDS011;48747;50.250;18.848;2022-09-09T03:13:05;15.25;;;12.78;;
37355;SDS011;48747;50.250;18.848;2022-09-09T03:15:15;14.35;;;12.55;;
37355;SDS011;48747;50.250;18.848;2022-09-09T03:17:16;14.90;;;13.08;;
37355;SDS011;48747;50.250;18.848;2022-09-09T03:19:20;16.57;;;13.20;;
37355;SDS011;48747;50.250;18.848;2022-09-09T03:21:23;19.10;;;14.35;;
37355;SDS011;48747;50.250;18.848;2022-09-09T03:23:26;19.35;;;14.00;;
37355;SDS011;48747;50.250;18.848;2022-09-09T03:25:29;19.45;;;13.98;;
37355;SDS011;48747;50.250;18.848;2022-09-09T03:27:34;19.12;;;13.83;;
37355;SDS011;48747;50.250;18.848;2022-09-09T03:29:37;17.37;;;13.98;;
37355;SDS011;48747;50.250;18.848;2022-09-09T03:31:40;20.75;;;14.28;;
37355;SDS011;48747;50.250;18.848;2022-09-09T03:33:44;17.75;;;14.20;;
37355;SDS011;48747;50.250;18.848;2022-09-09T03:35:47;17.90;;;13.88;;
37355;SDS011;48747;50.250;18.848;2022-09-09T03:37:50;18.45;;;15.38;;
37355;SDS011;48747;50.250;18.848;2022-09-09T03:39:58;17.57;;;14.35;;
37355;SDS011;48747;50.250;18.848;2022-09-09T03:41:58;17.05;;;13.70;;
37355;SDS011;48747;50.250;18.848;2022-09-09T03:44:03;19.23;;;15.03;;
37355;SDS011;48747;50.250;18.848;2022-09-09T03:46:07;16.30;;;14.43;;
37355;SDS011;48747;50.250;18.848;2022-09-09T03:48:10;19.23;;;14.38;;
37355;SDS011;48747;50.250;18.848;2022-09-09T03:50:14;21.17;;;14.85;;
37355;SDS011;48747;50.250;18.848;2022-09-09T03:52:18;18.17;;;14.28;;
37355;SDS011;48747;50.250;18.848;2022-09-09T03:54:23;16.87;;;14.93;;
37355;SDS011;48747;50.250;18.848;2022-09-09T03:56:26;19.10;;;14.90;;
37355;SDS011;48747;50.250;18.848;2022-09-09T03:58:31;18.73;;;14.13;;
37355;SDS011;48747;50.250;18.848;2022-09-09T04:00:37;16.70;;;14.35;;
37355;SDS011;48747;50.250;18.848;2022-09-09T04:02:41;18.37;;;13.90;;
37355;SDS011;48747;50.250;18.848;2022-09-09T04:04:48;18.90;;;15.10;;
37355;SDS011;48747;50.250;18.848;2022-09-09T04:06:52;19.17;;;14.93;;
37355;SDS011;48747;50.250;18.848;2022-09-09T04:08:56;18.57;;;15.30;;
37355;SDS011;48747;50.250;18.848;2022-09-09T04:10:59;18.30;;;14.78;;
37355;SDS011;48747;50.250;18.848;2022-09-09T04:13:04;17.25;;;15.05;;
37355;SDS011;48747;50.250;18.848;2022-09-09T04:15:07;17.42;;;14.80;;
37355;SDS011;48747;50.250;18.848;2022-09-09T04:17:11;16.82;;;14.30;;
37355;SDS011;48747;50.250;18.848;2022-09-09T04:19:15;16.65;;;14.90;;
37355;SDS011;48747;50.250;18.848;2022-09-09T04:21:18;17.62;;;15.30;;
37355;SDS011;48747;50.250;18.848;2022-09-09T04:23:23;20.97;;;15.20;;
37355;SDS011;48747;50.250;18.848;2022-09-09T04:25:28;20.05;;;15.72;;
37355;SDS011;48747;50.250;18.848;2022-09-09T04:27:31;18.30;;;15.30;;
37355;SDS011;48747;50.250;18.848;2022-09-09T04:29:35;19.00;;;15.32;;
37355;SDS011;48747;50.250;18.848;2022-09-09T04:31:38;20.88;;;15.05;;
37355;SDS011;48747;50.250;18.848;2022-09-09T04:33:43;18.98;;;14.93;;
37355;SDS011;48747;50.250;18.848;2022-09-09T04:35:47;21.52;;;15.95;;
37355;SDS011;48747;50.250;18.848;2022-09-09T04:37:51;19.67;;;15.55;;
37355;SDS011;48747;50.250;18.848;2022-09-09T04:39:54;20.00;;;14.83;;
37355;SDS011;48747;50.250;18.848;2022-09-09T04:41:57;17.67;;;15.08;;
37355;SDS011;48747;50.250;18.848;2022-09-09T04:44:00;19.23;;;14.87;;
37355;SDS011;48747;50.250;18.848;2022-09-09T04:46:05;22.62;;;14.87;;
37355;SDS011;48747;50.250;18.848;2022-09-09T04:48:08;18.98;;;15.60;;
37355;SDS011;48747;50.250;18.848;2022-09-09T04:50:14;19.98;;;14.60;;
37355;SDS011;48747;50.250;18.848;2022-09-09T04:52:17;21.23;;;15.68;;
37355;SDS011;48747;50.250;18.848;2022-09-09T04:54:25;20.80;;;15.10;;
37355;SDS011;48747;50.250;18.848;2022-09-09T04:56:29;18.75;;;15.63;;
37355;SDS011;48747;50.250;18.848;2022-09-09T04:58:32;20.50;;;15.70;;
37355;SDS011;48747;50.250;18.848;2022-09-09T05:00:37;20.75;;;15.25;;
37355;SDS011;48747;50.250;18.848;2022-09-09T05:02:40;23.38;;;15.60;;
37355;SDS011;48747;50.250;18.848;2022-09-09T05:04:50;18.75;;;15.15;;
37355;SDS011;48747;50.250;18.848;2022-09-09T05:06:51;19.45;;;14.75;;
37355;SDS011;48747;50.250;18.848;2022-09-09T05:08:55;19.25;;;14.85;;
37355;SDS011;48747;50.250;18.848;2022-09-09T05:10:59;19.20;;;14.65;;
37355;SDS011;48747;50.250;18.848;2022-09-09T05:13:02;20.72;;;14.90;;
37355;SDS011;48747;50.250;18.848;2022-09-09T05:15:07;18.20;;;14.15;;
37355;SDS011;48747;50.250;18.848;2022-09-09T05:17:11;18.12;;;14.30;;
37355;SDS011;48747;50.250;18.848;2022-09-09T05:19:14;19.40;;;15.65;;
37355;SDS011;48747;50.250;18.848;2022-09-09T05:21:20;20.92;;;14.40;;
37355;SDS011;48747;50.250;18.848;2022-09-09T05:23:25;19.23;;;14.33;;
37355;SDS011;48747;50.250;18.848;2022-09-09T05:25:28;19.10;;;14.40;;
37355;SDS011;48747;50.250;18.848;2022-09-09T05:27:33;22.32;;;14.43;;
37355;SDS011;48747;50.250;18.848;2022-09-09T05:29:36;17.23;;;14.15;;
37355;SDS011;48747;50.250;18.848;2022-09-09T05:31:41;19.60;;;14.58;;
37355;SDS011;48747;50.250;18.848;2022-09-09T05:33:45;19.02;;;14.75;;
37355;SDS011;48747;50.250;18.848;2022-09-09T05:35:57;19.80;;;14.78;;
37355;SDS011;48747;50.250;18.848;2022-09-09T05:38:02;20.55;;;14.58;;
37355;SDS011;48747;50.250;18.848;2022-09-09T05:40:07;17.45;;;15.08;;
37355;SDS011;48747;50.250;18.848;2022-09-09T05:42:12;20.08;;;14.75;;
37355;SDS011;48747;50.250;18.848;2022-09-09T05:44:16;20.35;;;14.87;;
37355;SDS011;48747;50.250;18.848;2022-09-09T05:46:26;17.90;;;14.73;;
37355;SDS011;48747;50.250;18.848;2022-09-09T05:48:27;19.73;;;14.65;;
37355;SDS011;48747;50.250;18.848;2022-09-09T05:50:31;17.25;;;14.15;;
37355;SDS011;48747;50.250;18.848;2022-09-09T05:52:34;16.73;;;14.45;;
37355;SDS011;48747;50.250;18.848;2022-09-09T05:54:38;19.17;;;15.10;;
37355;SDS011;48747;50.250;18.848;2022-09-09T05:56:42;18.12;;;14.87;;
37355;SDS011;48747;50.250;18.848;2022-09-09T05:58:50;16.60;;;14.43;;
37355;SDS011;48747;50.250;18.848;2022-09-09T06:01:05;18.20;;;14.70;;
37355;SDS011;48747;50.250;18.848;2022-09-09T06:03:03;17.77;;;14.63;;
37355;SDS011;48747;50.250;18.848;2022-09-09T06:05:06;16.05;;;13.83;;
37355;SDS011;48747;50.250;18.848;2022-09-09T06:07:10;21.27;;;14.85;;
37355;SDS011;48747;50.250;18.848;2022-09-09T06:09:14;21.80;;;15.03;;
37355;SDS011;48747;50.250;18.848;2022-09-09T06:11:18;20.52;;;13.72;;
37355;SDS011;48747;50.250;18.848;2022-09-09T06:13:27;15.70;;;13.75;;
37355;SDS011;48747;50.250;18.848;2022-09-09T06:15:30;20.57;;;15.30;;
37355;SDS011;48747;50.250;18.848;2022-09-09T06:17:33;19.98;;;15.40;;
37355;SDS011;48747;50.250;18.848;2022-09-09T06:19:36;17.35;;;15.58;;
37355;SDS011;48747;50.250;18.848;2022-09-09T06:21:40;20.02;;;18.12;;
37355;SDS011;48747;50.250;18.848;2022-09-09T06:23:44;20.08;;;18.23;;
37355;SDS011;48747;50.250;18.848;2022-09-09T06:25:49;17.50;;;15.70;;
37355;SDS011;48747;50.250;18.848;2022-09-09T06:27:52;19.27;;;17.02;;
37355;SDS011;48747;50.250;18.848;2022-09-09T06:29:55;17.80;;;16.00;;
37355;SDS011;48747;50.250;18.848;2022-09-09T06:32:00;14.83;;;13.32;;
37355;SDS011;48747;50.250;18.848;2022-09-09T06:34:06;14.60;;;13.15;;
37355;SDS011;48747;50.250;18.848;2022-09-09T06:36:12;14.55;;;11.05;;
37355;SDS011;48747;50.250;18.848;2022-09-09T06:38:18;16.27;;;13.30;;
37355;SDS011;48747;50.250;18.848;2022-09-09T06:40:27;12.82;;;11.45;;
37355;SDS011;48747;50.250;18.848;2022-09-09T06:42:30;11.78;;;8.23;;
37355;SDS011;48747;50.250;18.848;2022-09-09T06:44:34;12.63;;;8.55;;
37355;SDS011;48747;50.250;18.848;2022-09-09T06:46:38;12.33;;;7.78;;
37355;SDS011;48747;50.250;18.848;2022-09-09T06:48:42;10.45;;;7.45;;
37355;SDS011;48747;50.250;18.848;2022-09-09T06:50:47;9.88;;;7.33;;
37355;SDS011;48747;50.250;18.848;2022-09-09T06:52:51;12.13;;;7.10;;
37355;SDS011;48747;50.250;18.848;2022-09-09T06:54:54;12.30;;;8.35;;
37355;SDS011;48747;50.250;18.848;2022-09-09T06:56:58;11.28;;;7.42;;
37355;SDS011;48747;50.250;18.848;2022-09-09T06:59:07;10.85;;;6.60;;
37355;SDS011;48747;50.250;18.848;2022-09-09T07:01:12;11.18;;;7.12;;
37355;SDS011;48747;50.250;18.848;2022-09-09T07:03:22;9.53;;;6.53;;
37355;SDS011;48747;50.250;18.848;2022-09-09T07:05:21;8.73;;;6.47;;
37355;SDS011;48747;50.250;18.848;2022-09-09T07:07:26;8.38;;;6.10;;
37355;SDS011;48747;50.250;18.848;2022-09-09T07:09:31;11.00;;;5.83;;
37355;SDS011;48747;50.250;18.848;2022-09-09T07:11:37;7.95;;;5.95;;
37355;SDS011;48747;50.250;18.848;2022-09-09T07:13:43;8.28;;;6.37;;
37355;SDS011;48747;50.250;18.848;2022-09-09T07:15:46;9.95;;;6.22;;
37355;SDS011;48747;50.250;18.848;2022-09-09T07:17:49;7.75;;;5.45;;
37355;SDS011;48747;50.250;18.848;2022-09-09T07:19:52;9.25;;;6.03;;
37355;SDS011;48747;50.250;18.848;2022-09-09T07:21:55;9.00;;;7.35;;
37355;SDS011;48747;50.250;18.848;2022-09-09T07:23:59;7.75;;;6.42;;
37355;SDS011;48747;50.250;18.848;2022-09-09T07:26:12;8.98;;;7.78;;
37355;SDS011;48747;50.250;18.848;2022-09-09T07:28:17;8.83;;;6.53;;
37355;SDS011;48747;50.250;18.848;2022-09-09T07:30:20;8.10;;;5.65;;
37355;SDS011;48747;50.250;18.848;2022-09-09T07:32:24;5.85;;;4.47;;
37355;SDS011;48747;50.250;18.848;2022-09-09T07:34:31;5.80;;;5.00;;
37355;SDS011;48747;50.250;18.848;2022-09-09T07:36:36;6.47;;;4.62;;
37355;SDS011;48747;50.250;18.848;2022-09-09T07:38:41;8.53;;;4.40;;
37355;SDS011;48747;50.250;18.848;2022-09-09T07:40:50;7.35;;;4.50;;
37355;SDS011;48747;50.250;18.848;2022-09-09T07:42:53;6.90;;;3.90;;
37355;SDS011;48747;50.250;18.848;2022-09-09T07:44:57;6.12;;;3.70;;
37355;SDS011;48747;50.250;18.848;2022-09-09T07:47:01;6.45;;;3.50;;
37355;SDS011;48747;50.250;18.848;2022-09-09T07:49:04;7.83;;;3.87;;
37355;SDS011;48747;50.250;18.848;2022-09-09T07:51:09;6.90;;;4.33;;
37355;SDS011;48747;50.250;18.848;2022-09-09T07:53:18;6.12;;;4.42;;
37355;SDS011;48747;50.250;18.848;2022-09-09T07:55:23;6.05;;;4.20;;
37355;SDS011;48747;50.250;18.848;2022-09-09T07:57:26;6.95;;;4.65;;
37355;SDS011;48747;50.250;18.848;2022-09-09T07:59:35;5.67;;;4.10;;
37355;SDS011;48747;50.250;18.848;2022-09-09T08:01:42;5.37;;;3.40;;
37355;SDS011;48747;50.250;18.848;2022-09-09T08:06:00;6.03;;;3.37;;
37355;SDS011;48747;50.250;18.848;2022-09-09T08:08:09;6.12;;;3.47;;
37355;SDS011;48747;50.250;18.848;2022-09-09T08:10:16;4.53;;;3.05;;
37355;SDS011;48747;50.250;18.848;2022-09-09T08:12:17;5.25;;;3.27;;
37355;SDS011;48747;50.250;18.848;2022-09-09T08:14:20;5.22;;;3.27;;
37355;SDS011;48747;50.250;18.848;2022-09-09T08:16:28;5.15;;;3.17;;
37355;SDS011;48747;50.250;18.848;2022-09-09T08:18:34;8.35;;;3.27;;
37355;SDS011;48747;50.250;18.848;2022-09-09T08:20:39;6.45;;;3.70;;
37355;SDS011;48747;50.250;18.848;2022-09-09T08:22:44;7.28;;;3.20;;
37355;SDS011;48747;50.250;18.848;2022-09-09T08:24:55;5.35;;;3.22;;
37355;SDS011;48747;50.250;18.848;2022-09-09T08:26:55;7.70;;;3.42;;
37355;SDS011;48747;50.250;18.848;2022-09-09T08:28:59;5.42;;;2.90;;
37355;SDS011;48747;50.250;18.848;2022-09-09T08:31:13;4.83;;;3.10;;
37355;SDS011;48747;50.250;18.848;2022-09-09T08:33:19;5.97;;;2.65;;
37355;SDS011;48747;50.250;18.848;2022-09-09T08:35:22;8.00;;;2.92;;
37355;SDS011;48747;50.250;18.848;2022-09-09T08:37:25;7.08;;;2.65;;
37355;SDS011;48747;50.250;18.848;2022-09-09T08:39:28;4.97;;;2.92;;
37355;SDS011;48747;50.250;18.848;2022-09-09T08:41:38;4.37;;;2.35;;
37355;SDS011;48747;50.250;18.848;2022-09-09T08:43:45;6.50;;;2.40;;
37355;SDS011;48747;50.250;18.848;2022-09-09T08:46:00;5.17;;;2.52;;
37355;SDS011;48747;50.250;18.848;2022-09-09T08:48:20;5.22;;;2.45;;
37355;SDS011;48747;50.250;18.848;2022-09-09T08:50:27;4.22;;;2.50;;
37355;SDS011;48747;50.250;18.848;2022-09-09T08:52:47;4.10;;;2.52;;
37355;SDS011;48747;50.250;18.848;2022-09-09T08:54:51;5.95;;;2.35;;
37355;SDS011;48747;50.250;18.848;2022-09-09T08:56:58;3.52;;;2.30;;
37355;SDS011;48747;50.250;18.848;2022-09-09T08:59:01;4.90;;;2.30;;
37355;SDS011;48747;50.250;18.848;2022-09-09T09:06:01;5.95;;;2.50;;
37355;SDS011;48747;50.250;18.848;2022-09-09T09:08:25;3.45;;;2.33;;
37355;SDS011;48747;50.250;18.848;2022-09-09T09:12:51;3.62;;;2.30;;
37355;SDS011;48747;50.250;18.848;2022-09-09T09:14:56;2.85;;;2.30;;
37355;SDS011;48747;50.250;18.848;2022-09-09T09:17:01;5.42;;;2.77;;
37355;SDS011;48747;50.250;18.848;2022-09-09T09:19:08;4.70;;;2.72;;
37355;SDS011;48747;50.250;18.848;2022-09-09T09:21:14;6.05;;;2.50;;
37355;SDS011;48747;50.250;18.848;2022-09-09T09:23:29;6.20;;;2.83;;
37355;SDS011;48747;50.250;18.848;2022-09-09T09:25:35;5.37;;;2.80;;
37355;SDS011;48747;50.250;18.848;2022-09-09T09:27:42;7.15;;;2.60;;
37355;SDS011;48747;50.250;18.848;2022-09-09T09:30:12;4.72;;;2.60;;
37355;SDS011;48747;50.250;18.848;2022-09-09T09:32:18;4.15;;;2.60;;
37355;SDS011;48747;50.250;18.848;2022-09-09T09:34:23;7.55;;;2.50;;
37355;SDS011;48747;50.250;18.848;2022-09-09T09:36:45;3.45;;;2.17;;
37355;SDS011;48747;50.250;18.848;2022-09-09T09:38:55;3.47;;;2.20;;
37355;SDS011;48747;50.250;18.848;2022-09-09T09:41:01;3.80;;;2.17;;
37355;SDS011;48747;50.250;18.848;2022-09-09T09:43:04;4.60;;;2.00;;
37355;SDS011;48747;50.250;18.848;2022-09-09T09:45:16;4.00;;;2.27;;
37355;SDS011;48747;50.250;18.848;2022-09-09T09:47:21;3.08;;;2.17;;
37355;SDS011;48747;50.250;18.848;2022-09-09T09:49:26;4.05;;;2.55;;
37355;SDS011;48747;50.250;18.848;2022-09-09T09:51:30;4.60;;;2.20;;
37355;SDS011;48747;50.250;18.848;2022-09-09T09:53:35;2.45;;;1.90;;
37355;SDS011;48747;50.250;18.848;2022-09-09T09:55:44;3.00;;;1.77;;
37355;SDS011;48747;50.250;18.848;2022-09-09T09:57:46;3.92;;;1.95;;
37355;SDS011;48747;50.250;18.848;2022-09-09T09:59:49;6.03;;;2.12;;
37355;SDS011;48747;50.250;18.848;2022-09-09T10:02:05;3.98;;;2.35;;
37355;SDS011;48747;50.250;18.848;2022-09-09T10:04:19;2.92;;;1.90;;
37355;SDS011;48747;50.250;18.848;2022-09-09T10:06:38;2.17;;;1.60;;
37355;SDS011;48747;50.250;18.848;2022-09-09T10:08:44;3.08;;;1.77;;
37355;SDS011;48747;50.250;18.848;2022-09-09T10:13:19;4.50;;;1.87;;
37355;SDS011;48747;50.250;18.848;2022-09-09T10:17:54;9.43;;;1.98;;
37355;SDS011;48747;50.250;18.848;2022-09-09T10:20:19;4.33;;;2.00;;
37355;SDS011;48747;50.250;18.848;2022-09-09T10:22:27;6.50;;;2.37;;
37355;SDS011;48747;50.250;18.848;2022-09-09T10:37:00;5.33;;;2.15;;
37355;SDS011;48747;50.250;18.848;2022-09-09T10:46:06;5.12;;;2.30;;
37355;SDS011;48747;50.250;18.848;2022-09-09T10:48:29;3.20;;;2.00;;
37355;SDS011;48747;50.250;18.848;2022-09-09T10:55:16;3.17;;;1.75;;
37355;SDS011;48747;50.250;18.848;2022-09-09T10:57:27;2.77;;;2.10;;
37355;SDS011;48747;50.250;18.848;2022-09-09T10:59:38;4.00;;;2.10;;
37355;SDS011;48747;50.250;18.848;2022-09-09T11:04:01;5.08;;;1.82;;
37355;SDS011;48747;50.250;18.848;2022-09-09T11:06:04;10.50;;;2.02;;
37355;SDS011;48747;50.250;18.848;2022-09-09T11:08:11;3.45;;;2.10;;
37355;SDS011;48747;50.250;18.848;2022-09-09T11:10:40;5.85;;;2.50;;
37355;SDS011;48747;50.250;18.848;2022-09-09T11:12:44;4.67;;;1.90;;
37355;SDS011;48747;50.250;18.848;2022-09-09T11:14:54;14.53;;;2.72;;
37355;SDS011;48747;50.250;18.848;2022-09-09T11:17:08;10.70;;;2.02;;
37355;SDS011;48747;50.250;18.848;2022-09-09T11:21:30;8.00;;;2.40;;
37355;SDS011;48747;50.250;18.848;2022-09-09T11:23:39;7.00;;;2.02;;
37355;SDS011;48747;50.250;18.848;2022-09-09T11:25:45;5.87;;;1.95;;
37355;SDS011;48747;50.250;18.848;2022-09-09T11:27:56;2.47;;;1.50;;
37355;SDS011;48747;50.250;18.848;2022-09-09T11:34:44;3.60;;;1.60;;
37355;SDS011;48747;50.250;18.848;2022-09-09T11:37:01;4.87;;;1.27;;
37355;SDS011;48747;50.250;18.848;2022-09-09T11:41:34;6.08;;;1.40;;
37355;SDS011;48747;50.250;18.848;2022-09-09T11:43:40;2.12;;;1.30;;
37355;SDS011;48747;50.250;18.848;2022-09-09T11:45:51;2.02;;;1.50;;
37355;SDS011;48747;50.250;18.848;2022-09-09T11:47:58;2.58;;;1.50;;
37355;SDS011;48747;50.250;18.848;2022-09-09T11:50:10;2.80;;;1.60;;
37355;SDS011;48747;50.250;18.848;2022-09-09T11:52:21;2.75;;;1.67;;
37355;SDS011;48747;50.250;18.848;2022-09-09T11:54:47;2.08;;;1.45;;
37355;SDS011;48747;50.250;18.848;2022-09-09T11:56:51;3.27;;;1.37;;
37355;SDS011;48747;50.250;18.848;2022-09-09T11:59:02;4.50;;;1.40;;
37355;SDS011;48747;50.250;18.848;2022-09-09T12:01:12;2.50;;;1.50;;
37355;SDS011;48747;50.250;18.848;2022-09-09T12:03:36;2.33;;;1.30;;
37355;SDS011;48747;50.250;18.848;2022-09-09T12:05:47;2.92;;;1.35;;
37355;SDS011;48747;50.250;18.848;2022-09-09T12:07:54;5.47;;;1.70;;
37355;SDS011;48747;50.250;18.848;2022-09-09T12:14:20;3.80;;;1.37;;
37355;SDS011;48747;50.250;18.848;2022-09-09T12:16:32;2.47;;;1.20;;
37355;SDS011;48747;50.250;18.848;2022-09-09T12:24:04;2.65;;;1.50;;
37355;SDS011;48747;50.250;18.848;2022-09-09T12:26:15;4.33;;;1.60;;
37355;SDS011;48747;50.250;18.848;2022-09-09T12:30:23;4.28;;;2.15;;
37355;SDS011;48747;50.250;18.848;2022-09-09T12:32:31;2.42;;;1.50;;
37355;SDS011;48747;50.250;18.848;2022-09-09T12:34:38;2.83;;;1.42;;
37355;SDS011;48747;50.250;18.848;2022-09-09T12:36:42;4.70;;;1.60;;
37355;SDS011;48747;50.250;18.848;2022-09-09T12:38:48;2.20;;;1.30;;
37355;SDS011;48747;50.250;18.848;2022-09-09T12:40:57;3.55;;;1.50;;
37355;SDS011;48747;50.250;18.848;2022-09-09T12:42:58;2.85;;;1.50;;
37355;SDS011;48747;50.250;18.848;2022-09-09T12:45:03;4.85;;;1.80;;
37355;SDS011;48747;50.250;18.848;2022-09-09T12:47:09;2.42;;;1.40;;
37355;SDS011;48747;50.250;18.848;2022-09-09T12:49:27;6.17;;;1.70;;
37355;SDS011;48747;50.250;18.848;2022-09-09T12:51:33;4.92;;;1.70;;
37355;SDS011;48747;50.250;18.848;2022-09-09T12:53:38;5.22;;;1.80;;
37355;SDS011;48747;50.250;18.848;2022-09-09T12:55:52;3.95;;;1.80;;
37355;SDS011;48747;50.250;18.848;2022-09-09T12:57:53;3.70;;;1.80;;
37355;SDS011;48747;50.250;18.848;2022-09-09T13:00:04;2.75;;;1.70;;
37355;SDS011;48747;50.250;18.848;2022-09-09T13:02:20;2.85;;;1.80;;
37355;SDS011;48747;50.250;18.848;2022-09-09T13:04:24;2.85;;;1.65;;
37355;SDS011;48747;50.250;18.848;2022-09-09T13:06:28;2.87;;;1.37;;
37355;SDS011;48747;50.250;18.848;2022-09-09T13:08:32;3.50;;;1.57;;
37355;SDS011;48747;50.250;18.848;2022-09-09T13:10:37;1.72;;;1.22;;
37355;SDS011;48747;50.250;18.848;2022-09-09T13:12:42;5.17;;;1.77;;
37355;SDS011;48747;50.250;18.848;2022-09-09T13:14:46;3.12;;;1.40;;
37355;SDS011;48747;50.250;18.848;2022-09-09T13:16:56;3.25;;;1.35;;
37355;SDS011;48747;50.250;18.848;2022-09-09T13:19:13;2.77;;;1.40;;
37355;SDS011;48747;50.250;18.848;2022-09-09T13:21:09;2.92;;;1.32;;
37355;SDS011;48747;50.250;18.848;2022-09-09T13:23:12;4.12;;;1.57;;
37355;SDS011;48747;50.250;18.848;2022-09-09T13:27:36;2.65;;;1.20;;
37355;SDS011;48747;50.250;18.848;2022-09-09T13:29:38;3.22;;;1.40;;
37355;SDS011;48747;50.250;18.848;2022-09-09T13:31:41;2.80;;;1.25;;
37355;SDS011;48747;50.250;18.848;2022-09-09T13:33:45;3.70;;;1.32;;
37355;SDS011;48747;50.250;18.848;2022-09-09T13:35:49;3.35;;;1.30;;
37355;SDS011;48747;50.250;18.848;2022-09-09T13:37:54;2.15;;;1.17;;
37355;SDS011;48747;50.250;18.848;2022-09-09T13:39:57;4.15;;;1.67;;
37355;SDS011;48747;50.250;18.848;2022-09-09T13:42:01;3.12;;;1.72;;
37355;SDS011;48747;50.250;18.848;2022-09-09T13:44:17;2.52;;;1.70;;
37355;SDS011;48747;50.250;18.848;2022-09-09T13:48:33;4.25;;;1.67;;
37355;SDS011;48747;50.250;18.848;2022-09-09T13:50:36;3.35;;;1.80;;
37355;SDS011;48747;50.250;18.848;2022-09-09T13:52:39;1.77;;;1.55;;
37355;SDS011;48747;50.250;18.848;2022-09-09T13:54:43;4.67;;;1.85;;
37355;SDS011;48747;50.250;18.848;2022-09-09T13:56:47;2.02;;;1.45;;
37355;SDS011;48747;50.250;18.848;2022-09-09T13:58:50;4.47;;;1.75;;
37355;SDS011;48747;50.250;18.848;2022-09-09T14:00:53;1.98;;;1.50;;
37355;SDS011;48747;50.250;18.848;2022-09-09T14:02:57;1.72;;;1.42;;